Time;durP1;ratioP1;P1;durP2;ratioP2;P2;SDS_P1;SDS_P2;PMS_P1;PMS_P2;Temp;Humidity;BMP_temperature;BMP_pressure;BME280_temperature;BME280_humidity;BME280_pressure;Samples;Min_cycle;Max_cycle;Signal;HPM_P1;HPM_P2
2023/02/13 00:00:24;;;;;;;;;;;0.00;99.90;;;;;;5054704;28;19951;-72
2023/02/13 00:02:56;;;;;;;;;;;0.10;99.90;;;;;;5066213;28;19932;-73
2023/02/13 00:05:27;;;;;;;;;;;0.10;99.90;;;;;;5072149;28;19943;-72
2023/02/13 00:07:59;;;;;;;;;;;0.10;99.90;;;;;;5064846;28;20306;-72
2023/02/13 00:10:31;;;;;;;;;;;0.20;99.90;;;;;;5068601;28;19968;-72
2023/02/13 00:12:58;;;;;;;;;;;0.20;99.90;;;;;;5069856;28;19951;-72
2023/02/13 00:15:29;;;;;;;;;;;0.20;99.90;;;;;;5066490;28;19930;-71
2023/02/13 00:18:01;;;;;;;;;;;0.20;99.90;;;;;;5066318;28;20446;-72
2023/02/13 00:20:33;;;;;;;;;;;0.10;99.90;;;;;;5068108;28;19928;-72
2023/02/13 00:23:05;;;;;;;;;;;0.20;99.90;;;;;;5060448;28;19924;-72
2023/02/13 00:25:31;;;;;;;;;;;0.10;99.90;;;;;;5067951;28;20429;-72
2023/02/13 00:28:03;;;;;;;;;;;0.10;99.90;;;;;;5054380;28;19924;-73
2023/02/13 00:30:31;;;;;;;;;;;0.10;99.90;;;;;;5067943;28;19925;-72
2023/02/13 00:33:02;;;;;;;;;;;0.10;99.90;;;;;;5069472;28;19939;-73
2023/02/13 00:35:34;;;;;;;;;;;0.00;99.90;;;;;;5071842;28;20011;-73
2023/02/13 00:38:06;;;;;;;;;;;-0.10;99.90;;;;;;5051459;28;19980;-72
2023/02/13 00:40:38;;;;;;;;;;;-0.20;99.90;;;;;;5071685;28;19925;-73
2023/02/13 00:43:09;;;;;;;;;;;-0.20;99.90;;;;;;5072440;28;19928;-73
2023/02/13 00:45:41;;;;;;;;;;;-0.30;99.90;;;;;;5062292;28;20315;-72
2023/02/13 00:48:08;;;;;;;;;;;-0.30;99.90;;;;;;5063797;28;20368;-72
2023/02/13 00:50:35;;;;;;;;;;;-0.30;99.90;;;;;;5071771;28;19925;-72
2023/02/13 00:53:02;;;;;;;;;;;-0.30;99.90;;;;;;5099680;28;19975;-73
2023/02/13 00:55:34;;;;;;;;;;;-0.30;99.90;;;;;;5044489;28;19929;-72
2023/02/13 00:58:07;;;;;;;;;;;-0.20;99.90;;;;;;5063634;28;19924;-72
2023/02/13 01:00:39;;;;;;;;;;;-0.20;99.90;;;;;;5070467;28;19929;-72
2023/02/13 01:03:12;;;;;;;;;;;-0.20;99.90;;;;;;5067111;28;19970;-72
2023/02/13 01:05:45;;;;;;;;;;;-0.20;99.90;;;;;;5063372;28;20227;-72
2023/02/13 01:08:17;;;;;;;;;;;-0.10;99.90;;;;;;5079318;28;20006;-73
2023/02/13 01:10:49;;;;;;;;;;;-0.10;99.90;;;;;;5066800;28;19925;-72
2023/02/13 01:13:19;;;;;;;;;;;0.00;99.90;;;;;;5071156;28;19931;-72
2023/02/13 01:15:53;;;;;;;;;;;0.00;99.90;;;;;;5066546;28;20438;-72
2023/02/13 01:18:24;;;;;;;;;;;0.00;99.90;;;;;;5067673;28;19934;-72
2023/02/13 01:21:00;;;;;;;;;;;0.00;99.90;;;;;;5063995;28;20298;-72
2023/02/13 01:23:31;;;;;;;;;;;0.10;99.90;;;;;;5065591;28;19925;-73
2023/02/13 01:26:04;;;;;;;;;;;0.00;99.90;;;;;;5050554;28;19929;-72
2023/02/13 01:28:36;;;;;;;;;;;0.10;99.90;;;;;;5059247;28;19932;-73
2023/02/13 01:31:10;;;;;;;;;;;0.10;99.90;;;;;;5056382;28;19935;-73
2023/02/13 01:33:42;;;;;;;;;;;0.10;99.90;;;;;;5070601;28;20409;-72
2023/02/13 01:36:14;;;;;;;;;;;0.10;99.90;;;;;;5068366;28;19978;-72
2023/02/13 01:38:40;;;;;;;;;;;0.10;99.90;;;;;;5066616;28;19929;-73
2023/02/13 01:41:14;;;;;;;;;;;0.10;99.90;;;;;;5065482;28;19928;-72
2023/02/13 01:43:50;;;;;;;;;;;0.20;99.90;;;;;;5066525;28;19924;-72
2023/02/13 01:46:28;;;;;;;;;;;0.20;99.90;;;;;;5062004;28;19940;-73
2023/02/13 01:49:12;;;;;;;;;;;0.20;99.90;;;;;;5069532;28;19924;-72
2023/02/13 01:51:45;;;;;;;;;;;0.20;99.90;;;;;;5063093;28;19932;-72
2023/02/13 01:54:19;;;;;;;;;;;0.20;99.90;;;;;;5070542;28;19925;-73
2023/02/13 01:56:54;;;;;;;;;;;0.20;99.90;;;;;;5094499;28;19924;-73
2023/02/13 01:59:25;;;;;;;;;;;0.20;99.90;;;;;;5092353;28;19928;-73
2023/02/13 02:01:57;;;;;;;;;;;0.30;99.90;;;;;;5062800;28;19928;-72
2023/02/13 02:04:29;;;;;;;;;;;0.30;99.90;;;;;;5053550;28;19936;-72
2023/02/13 02:07:06;;;;;;;;;;;0.30;99.90;;;;;;5057758;28;19955;-73
2023/02/13 02:09:39;;;;;;;;;;;0.30;99.90;;;;;;5056723;28;19929;-73
2023/02/13 02:12:22;;;;;;;;;;;0.30;99.90;;;;;;5064224;28;19929;-73
2023/02/13 02:14:55;;;;;;;;;;;0.30;99.90;;;;;;5068123;28;19951;-73
2023/02/13 02:17:30;;;;;;;;;;;0.30;99.90;;;;;;5078257;28;20468;-73
2023/02/13 02:20:05;;;;;;;;;;;0.30;99.90;;;;;;5058641;28;19929;-72
2023/02/13 02:22:37;;;;;;;;;;;0.30;99.90;;;;;;5062224;28;19932;-73
2023/02/13 02:25:12;;;;;;;;;;;0.40;99.90;;;;;;5062998;28;20290;-73
2023/02/13 02:28:05;;;;;;;;;;;0.40;99.90;;;;;;5064987;28;19928;-73
2023/02/13 02:30:45;;;;;;;;;;;0.40;99.90;;;;;;5065222;28;19929;-74
2023/02/13 02:33:21;;;;;;;;;;;0.40;99.90;;;;;;5059125;28;20020;-73
2023/02/13 02:36:01;;;;;;;;;;;0.40;99.90;;;;;;5067933;28;19928;-74
2023/02/13 02:38:41;;;;;;;;;;;0.50;99.90;;;;;;5058941;28;19932;-74
2023/02/13 02:41:41;;;;;;;;;;;0.50;99.90;;;;;;5062305;28;20018;-73
2023/02/13 02:44:26;;;;;;;;;;;0.50;99.90;;;;;;5092346;28;20374;-74
2023/02/13 02:50:17;;;;;;;;;;;0.50;99.90;;;;;;5064452;28;19964;-73
2023/02/13 02:53:07;;;;;;;;;;;0.50;99.90;;;;;;5091740;28;19935;-74
2023/02/13 02:55:39;;;;;;;;;;;0.50;99.90;;;;;;5061615;28;20024;-73
2023/02/13 03:06:58;;;;;;;;;;;0.60;99.90;;;;;;5061369;28;19929;-73
2023/02/13 03:15:13;;;;;;;;;;;0.60;99.90;;;;;;5063245;28;20422;-72
2023/02/13 03:23:37;;;;;;;;;;;0.70;99.90;;;;;;5061718;28;20042;-73
2023/02/13 03:26:09;;;;;;;;;;;0.70;99.90;;;;;;5063775;28;19934;-73
2023/02/13 03:31:42;;;;;;;;;;;0.70;99.90;;;;;;5058950;28;19925;-74
2023/02/13 03:34:18;;;;;;;;;;;0.70;99.90;;;;;;5058151;28;19952;-73
2023/02/13 03:39:50;;;;;;;;;;;0.80;99.90;;;;;;5063827;28;20024;-73
2023/02/13 03:42:38;;;;;;;;;;;0.80;99.90;;;;;;5070215;28;19925;-72
2023/02/13 03:48:08;;;;;;;;;;;0.80;99.90;;;;;;5063783;28;20280;-73
2023/02/13 03:50:42;;;;;;;;;;;0.80;99.90;;;;;;5065786;28;19929;-74
2023/02/13 03:53:14;;;;;;;;;;;0.80;99.90;;;;;;5068313;28;19964;-73
2023/02/13 04:01:33;;;;;;;;;;;0.80;99.90;;;;;;5068687;28;19928;-72
2023/02/13 04:04:13;;;;;;;;;;;0.80;99.90;;;;;;5072744;28;19925;-72
2023/02/13 04:06:50;;;;;;;;;;;0.80;99.90;;;;;;5064166;28;19928;-71
2023/02/13 04:09:27;;;;;;;;;;;0.90;99.90;;;;;;5064017;28;20282;-73
2023/02/13 04:11:59;;;;;;;;;;;0.80;99.90;;;;;;5068191;28;20283;-74
2023/02/13 04:14:35;;;;;;;;;;;0.80;99.90;;;;;;5067248;28;19928;-73
2023/02/13 04:17:13;;;;;;;;;;;0.90;99.90;;;;;;5065274;28;19948;-73
2023/02/13 04:19:45;;;;;;;;;;;0.90;99.90;;;;;;5069330;28;19932;-74
2023/02/13 04:22:16;;;;;;;;;;;0.90;99.90;;;;;;5063130;28;19983;-73
2023/02/13 04:24:48;;;;;;;;;;;0.90;99.90;;;;;;5060634;28;19925;-74
2023/02/13 04:27:20;;;;;;;;;;;0.90;99.90;;;;;;5064993;28;19925;-74
2023/02/13 04:29:52;;;;;;;;;;;0.90;99.90;;;;;;5060229;28;20011;-73
2023/02/13 04:32:24;;;;;;;;;;;0.90;99.90;;;;;;5064343;28;19928;-73
2023/02/13 04:34:55;;;;;;;;;;;0.90;99.90;;;;;;5063846;28;20363;-73
2023/02/13 04:37:27;;;;;;;;;;;0.90;99.90;;;;;;5060623;28;19959;-73
2023/02/13 04:39:59;;;;;;;;;;;0.90;99.90;;;;;;5063991;28;19952;-72
2023/02/13 04:42:31;;;;;;;;;;;0.90;99.90;;;;;;5067271;28;20022;-73
2023/02/13 04:45:03;;;;;;;;;;;0.90;99.90;;;;;;5061912;28;19928;-74
2023/02/13 04:47:35;;;;;;;;;;;0.90;99.90;;;;;;5067017;28;20018;-74
2023/02/13 04:50:07;;;;;;;;;;;0.90;99.90;;;;;;5063317;28;19925;-74
2023/02/13 04:52:39;;;;;;;;;;;0.90;99.90;;;;;;5062618;28;20027;-74
2023/02/13 04:55:11;;;;;;;;;;;0.90;99.90;;;;;;5061603;28;19979;-74
2023/02/13 04:57:43;;;;;;;;;;;0.90;99.90;;;;;;5060074;28;19925;-73
2023/02/13 05:00:15;;;;;;;;;;;0.90;99.90;;;;;;5063675;28;20282;-74
2023/02/13 05:02:47;;;;;;;;;;;0.90;99.90;;;;;;5065678;28;19936;-73
2023/02/13 05:05:19;;;;;;;;;;;0.90;99.90;;;;;;5063676;28;20015;-74
2023/02/13 05:07:51;;;;;;;;;;;0.90;99.90;;;;;;5065154;28;19925;-73
2023/02/13 05:10:22;;;;;;;;;;;1.00;99.90;;;;;;5061635;28;19925;-73
2023/02/13 05:12:54;;;;;;;;;;;0.90;99.90;;;;;;5067525;28;19931;-76
2023/02/13 05:15:26;;;;;;;;;;;1.00;99.90;;;;;;5068212;28;20007;-73
2023/02/13 05:17:58;;;;;;;;;;;1.00;99.90;;;;;;5061994;28;19929;-73
2023/02/13 05:20:30;;;;;;;;;;;1.00;99.90;;;;;;5066643;28;19935;-73
2023/02/13 05:25:47;;;;;;;;;;;1.00;99.90;;;;;;5067239;28;20326;-73
2023/02/13 05:31:09;;;;;;;;;;;1.20;99.90;;;;;;5069128;28;19929;-72
2023/02/13 05:33:41;;;;;;;;;;;1.20;99.90;;;;;;5067759;28;19924;-72
2023/02/13 05:36:11;;;;;;;;;;;1.20;99.90;;;;;;5081432;28;19925;-72
2023/02/13 05:38:42;;;;;;;;;;;1.20;99.90;;;;;;5057144;28;19967;-71
2023/02/13 05:41:12;;;;;;;;;;;1.20;99.90;;;;;;5080787;28;20594;-72
2023/02/13 05:43:42;;;;;;;;;;;1.10;99.90;;;;;;5052670;28;19932;-74
2023/02/13 05:46:13;;;;;;;;;;;1.10;99.90;;;;;;5065480;28;19986;-71
2023/02/13 05:48:44;;;;;;;;;;;1.10;99.90;;;;;;5065177;28;19937;-72
2023/02/13 05:51:14;;;;;;;;;;;1.10;99.90;;;;;;5092413;28;19930;-72
2023/02/13 05:53:54;;;;;;;;;;;1.10;99.90;;;;;;5067385;28;19928;-72
2023/02/13 05:56:30;;;;;;;;;;;1.10;99.90;;;;;;5065709;28;19925;-72
2023/02/13 05:59:01;;;;;;;;;;;1.10;99.90;;;;;;5049739;28;19925;-72
2023/02/13 06:01:36;;;;;;;;;;;1.20;99.90;;;;;;5061504;28;19956;-72
2023/02/13 06:04:15;;;;;;;;;;;1.10;99.90;;;;;;5074385;28;19932;-72
2023/02/13 06:06:55;;;;;;;;;;;1.10;99.90;;;;;;5052801;28;19933;-73
2023/02/13 06:09:24;;;;;;;;;;;1.10;99.90;;;;;;5069667;28;20015;-72
2023/02/13 06:11:55;;;;;;;;;;;1.10;99.90;;;;;;5051211;28;19936;-72
2023/02/13 06:14:35;;;;;;;;;;;1.10;99.90;;;;;;5054666;28;19968;-73
2023/02/13 06:17:10;;;;;;;;;;;1.10;99.90;;;;;;5074882;28;20288;-72
2023/02/13 06:19:41;;;;;;;;;;;1.10;99.90;;;;;;5068921;28;19925;-72
2023/02/13 06:22:10;;;;;;;;;;;1.10;99.90;;;;;;5069365;28;19935;-72
2023/02/13 06:24:40;;;;;;;;;;;1.00;99.90;;;;;;5070093;28;20448;-72
2023/02/13 06:27:09;;;;;;;;;;;1.00;99.90;;;;;;5051692;28;19933;-72
2023/02/13 06:29:42;;;;;;;;;;;1.00;99.90;;;;;;5071128;28;19990;-72
2023/02/13 06:32:14;;;;;;;;;;;1.00;99.90;;;;;;5079917;28;19963;-72
2023/02/13 06:34:52;;;;;;;;;;;1.00;99.90;;;;;;5057215;28;19978;-72
2023/02/13 06:37:23;;;;;;;;;;;1.00;99.90;;;;;;5066437;28;19932;-72
2023/02/13 06:39:56;;;;;;;;;;;1.00;99.90;;;;;;5056224;28;19932;-72
2023/02/13 06:42:49;;;;;;;;;;;1.00;99.90;;;;;;5069827;28;19925;-72
2023/02/13 06:45:42;;;;;;;;;;;1.10;99.90;;;;;;5062293;28;19916;-72
2023/02/13 06:48:14;;;;;;;;;;;1.00;99.90;;;;;;5083377;28;19932;-71
2023/02/13 06:50:43;;;;;;;;;;;1.00;99.90;;;;;;5072412;28;19925;-72
2023/02/13 06:53:24;;;;;;;;;;;1.00;99.90;;;;;;5068887;28;20406;-72
2023/02/13 06:56:03;;;;;;;;;;;1.10;99.90;;;;;;5079924;28;19939;-71
2023/02/13 06:58:33;;;;;;;;;;;1.00;99.90;;;;;;5092256;28;19935;-72
2023/02/13 07:01:35;;;;;;;;;;;1.10;99.90;;;;;;5061223;28;19982;-71
2023/02/13 07:04:21;;;;;;;;;;;1.10;99.90;;;;;;5080465;28;19929;-72
2023/02/13 07:07:40;;;;;;;;;;;1.10;99.90;;;;;;5072755;28;19925;-72
2023/02/13 07:10:12;;;;;;;;;;;1.10;99.90;;;;;;5073369;28;19924;-72
2023/02/13 07:12:49;;;;;;;;;;;1.10;99.90;;;;;;5066198;28;19925;-72
2023/02/13 07:15:44;;;;;;;;;;;1.10;99.90;;;;;;5055270;28;19928;-72
2023/02/13 07:18:58;;;;;;;;;;;1.10;99.90;;;;;;5064237;28;19951;-73
2023/02/13 07:22:25;;;;;;;;;;;1.10;99.90;;;;;;5070909;28;19932;-71
2023/02/13 07:25:27;;;;;;;;;;;1.20;99.90;;;;;;5083323;28;20390;-73
2023/02/13 07:29:04;;;;;;;;;;;1.20;99.90;;;;;;5068669;28;20521;-72
2023/02/13 07:35:53;;;;;;;;;;;1.20;99.90;;;;;;5064816;28;19932;-72
2023/02/13 07:39:06;;;;;;;;;;;1.20;99.90;;;;;;5065225;28;20357;-72
2023/02/13 07:42:20;;;;;;;;;;;1.20;99.90;;;;;;5088919;28;19974;-72
2023/02/13 07:45:10;;;;;;;;;;;1.20;99.90;;;;;;5069764;28;20275;-72
2023/02/13 07:48:03;;;;;;;;;;;1.30;99.90;;;;;;5064226;28;19931;-72
2023/02/13 07:50:49;;;;;;;;;;;1.30;99.90;;;;;;5059048;28;19986;-72
2023/02/13 07:53:54;;;;;;;;;;;1.40;99.90;;;;;;5023879;28;19979;-72
2023/02/13 07:56:42;;;;;;;;;;;1.40;99.90;;;;;;4994079;28;19968;-72
2023/02/13 07:59:12;;;;;;;;;;;1.40;99.90;;;;;;5026212;28;19929;-72
2023/02/13 08:01:40;;;;;;;;;;;1.50;99.90;;;;;;4996676;28;20012;-72
2023/02/13 08:04:09;;;;;;;;;;;1.40;99.90;;;;;;5007983;28;19926;-72
2023/02/13 08:06:41;;;;;;;;;;;1.40;99.90;;;;;;4997014;28;20285;-72
2023/02/13 08:12:11;;;;;;;;;;;1.40;99.90;;;;;;5022953;28;19932;-72
2023/02/13 08:14:48;;;;;;;;;;;1.40;99.90;;;;;;5020910;28;19929;-73
2023/02/13 08:17:18;;;;;;;;;;;1.50;99.90;;;;;;5011927;28;19955;-72
2023/02/13 08:19:48;;;;;;;;;;;1.40;99.90;;;;;;5008547;28;19972;-73
2023/02/13 08:22:28;;;;;;;;;;;1.40;99.90;;;;;;5026019;28;19936;-72
2023/02/13 08:25:07;;;;;;;;;;;1.50;99.90;;;;;;5040426;28;20333;-72
2023/02/13 08:27:40;;;;;;;;;;;1.50;99.90;;;;;;5067622;28;19929;-71
2023/02/13 08:30:14;;;;;;;;;;;1.50;99.90;;;;;;5067848;28;20023;-72
2023/02/13 08:32:47;;;;;;;;;;;1.50;99.90;;;;;;5071649;28;19933;-72
2023/02/13 08:35:28;;;;;;;;;;;1.50;99.90;;;;;;5068501;28;19936;-72
2023/02/13 08:38:06;;;;;;;;;;;1.50;99.90;;;;;;5063434;28;20283;-72
2023/02/13 08:40:36;;;;;;;;;;;1.50;99.90;;;;;;5068451;28;20012;-72
2023/02/13 08:43:13;;;;;;;;;;;1.50;99.90;;;;;;5055000;28;20012;-72
2023/02/13 08:45:47;;;;;;;;;;;1.50;99.90;;;;;;5083974;28;20015;-71
2023/02/13 08:48:28;;;;;;;;;;;1.60;99.90;;;;;;5069278;28;20445;-72
2023/02/13 08:50:59;;;;;;;;;;;1.60;99.90;;;;;;5067994;28;19925;-71
2023/02/13 08:53:33;;;;;;;;;;;1.60;99.90;;;;;;5068314;28;20367;-72
2023/02/13 08:56:10;;;;;;;;;;;1.70;99.90;;;;;;5071595;28;20398;-72
2023/02/13 08:58:42;;;;;;;;;;;1.70;99.90;;;;;;5066941;28;20020;-72
2023/02/13 09:01:18;;;;;;;;;;;1.70;99.90;;;;;;5086020;28;19928;-72
2023/02/13 09:03:51;;;;;;;;;;;1.70;99.90;;;;;;5092534;28;19925;-72
2023/02/13 09:06:25;;;;;;;;;;;1.70;99.90;;;;;;5047934;28;19925;-72
2023/02/13 09:08:58;;;;;;;;;;;1.70;99.90;;;;;;5044943;28;19931;-71
2023/02/13 09:11:28;;;;;;;;;;;1.80;99.90;;;;;;5085207;28;19974;-72
2023/02/13 09:14:00;;;;;;;;;;;1.80;99.90;;;;;;5081624;28;19924;-72
2023/02/13 09:16:31;;;;;;;;;;;1.80;99.90;;;;;;5070172;28;19924;-72
2023/02/13 09:19:03;;;;;;;;;;;1.80;99.90;;;;;;5052607;28;19964;-72
2023/02/13 09:21:35;;;;;;;;;;;1.80;99.90;;;;;;5065446;28;19939;-73
2023/02/13 09:24:13;;;;;;;;;;;1.80;99.90;;;;;;5096415;28;19932;-71
2023/02/13 09:26:45;;;;;;;;;;;1.80;99.90;;;;;;5067715;28;19932;-74
2023/02/13 09:29:15;;;;;;;;;;;1.80;99.90;;;;;;5067410;28;19928;-70
2023/02/13 09:31:44;;;;;;;;;;;1.80;99.90;;;;;;5052694;28;19926;-70
2023/02/13 09:34:13;;;;;;;;;;;1.90;99.90;;;;;;5052838;28;20095;-70
2023/02/13 09:36:40;;;;;;;;;;;1.90;99.90;;;;;;5053943;28;20398;-71
2023/02/13 09:39:11;;;;;;;;;;;2.00;99.90;;;;;;5064307;28;19981;-71
2023/02/13 09:42:11;;;;;;;;;;;1.90;99.90;;;;;;5062545;28;20276;-71
2023/02/13 09:45:12;;;;;;;;;;;1.90;99.90;;;;;;5091508;28;19916;-71
2023/02/13 09:47:48;;;;;;;;;;;2.00;99.90;;;;;;5047653;28;19958;-74
2023/02/13 09:54:21;;;;;;;;;;;2.10;99.90;;;;;;5022531;28;19932;-71
2023/02/13 09:57:24;;;;;;;;;;;2.00;99.90;;;;;;4996493;28;20577;-72
2023/02/13 10:00:38;;;;;;;;;;;2.00;99.90;;;;;;5021643;28;20018;-72
2023/02/13 10:04:05;;;;;;;;;;;2.00;99.90;;;;;;5013801;28;19947;-72
2023/02/13 10:07:48;;;;;;;;;;;2.00;99.90;;;;;;5013249;28;19932;-72
2023/02/13 10:10:52;;;;;;;;;;;1.80;99.90;;;;;;5013862;28;19925;-72
2023/02/13 10:13:36;;;;;;;;;;;1.90;99.90;;;;;;5012651;28;19972;-72
2023/02/13 10:16:45;;;;;;;;;;;2.00;99.90;;;;;;5026069;28;19937;-71
2023/02/13 10:19:49;;;;;;;;;;;2.10;99.90;;;;;;5015970;28;19925;-72
2023/02/13 10:22:50;;;;;;;;;;;2.10;99.90;;;;;;5022423;28;20413;-71
2023/02/13 10:26:14;;;;;;;;;;;2.20;99.90;;;;;;5061390;28;20402;-72
2023/02/13 10:32:19;;;;;;;;;;;2.20;99.90;;;;;;5072816;28;20379;-72
2023/02/13 10:35:27;;;;;;;;;;;2.30;99.90;;;;;;5085741;28;20015;-72
2023/02/13 10:38:19;;;;;;;;;;;2.40;99.90;;;;;;5051780;28;19925;-72
2023/02/13 10:41:56;;;;;;;;;;;2.50;99.90;;;;;;5070326;28;20113;-72
2023/02/13 10:45:24;;;;;;;;;;;2.50;99.90;;;;;;5070301;28;20401;-72
2023/02/13 10:48:36;;;;;;;;;;;2.60;99.90;;;;;;5064951;28;19990;-71
2023/02/13 10:51:34;;;;;;;;;;;2.60;99.90;;;;;;5070582;28;19966;-72
2023/02/13 10:54:46;;;;;;;;;;;2.70;99.90;;;;;;5064222;28;19920;-72
2023/02/13 10:57:18;;;;;;;;;;;2.70;99.90;;;;;;5063050;28;20387;-72
2023/02/13 10:59:50;;;;;;;;;;;2.70;99.90;;;;;;5065480;28;20298;-73
2023/02/13 11:02:21;;;;;;;;;;;2.70;99.90;;;;;;5069176;28;19924;-73
2023/02/13 11:05:01;;;;;;;;;;;2.70;99.90;;;;;;5068270;28;20394;-73
2023/02/13 11:07:33;;;;;;;;;;;2.60;99.90;;;;;;5067381;28;19998;-72
2023/02/13 11:10:12;;;;;;;;;;;2.70;99.90;;;;;;5071363;28;19925;-72
2023/02/13 11:12:44;;;;;;;;;;;2.70;99.90;;;;;;5069418;28;19924;-73
2023/02/13 11:15:24;;;;;;;;;;;2.70;99.90;;;;;;5069456;28;19932;-73
2023/02/13 11:17:58;;;;;;;;;;;2.70;99.90;;;;;;5067976;28;19932;-73
2023/02/13 11:20:35;;;;;;;;;;;2.80;99.90;;;;;;5070611;28;19964;-72
2023/02/13 11:23:12;;;;;;;;;;;2.80;99.90;;;;;;5068793;28;19933;-73
2023/02/13 11:25:53;;;;;;;;;;;2.80;99.90;;;;;;5070939;28;20374;-73
2023/02/13 11:28:26;;;;;;;;;;;2.90;99.90;;;;;;5068179;28;20050;-73
2023/02/13 11:31:27;;;;;;;;;;;2.90;99.90;;;;;;5063566;28;19928;-72
2023/02/13 11:33:54;;;;;;;;;;;2.80;99.90;;;;;;5063048;28;19924;-72
2023/02/13 11:36:27;;;;;;;;;;;2.80;99.90;;;;;;5070575;28;19924;-72
2023/02/13 11:38:58;;;;;;;;;;;2.80;99.90;;;;;;5071317;28;19924;-72
2023/02/13 11:41:35;;;;;;;;;;;2.90;99.90;;;;;;5055806;28;19925;-73
2023/02/13 11:44:19;;;;;;;;;;;2.90;99.90;;;;;;5071382;28;20448;-72
2023/02/13 11:46:51;;;;;;;;;;;3.00;99.90;;;;;;5071308;28;19928;-73
2023/02/13 11:49:24;;;;;;;;;;;3.10;99.90;;;;;;5066969;28;20272;-73
2023/02/13 11:51:57;;;;;;;;;;;3.00;99.90;;;;;;5055803;28;19931;-73
2023/02/13 11:54:33;;;;;;;;;;;3.00;99.90;;;;;;5072734;28;20342;-73
2023/02/13 11:57:13;;;;;;;;;;;3.00;99.90;;;;;;5065187;28;20432;-73
2023/02/13 11:59:46;;;;;;;;;;;3.00;99.90;;;;;;5097934;28;19925;-73
2023/02/13 12:02:19;;;;;;;;;;;3.00;99.90;;;;;;5062477;28;19935;-73
2023/02/13 12:04:47;;;;;;;;;;;3.00;99.90;;;;;;5070955;28;20436;-73
2023/02/13 12:07:23;;;;;;;;;;;3.00;99.90;;;;;;5063469;28;19929;-73
2023/02/13 12:10:04;;;;;;;;;;;3.00;99.90;;;;;;5061191;28;20403;-73
2023/02/13 12:12:52;;;;;;;;;;;3.10;99.90;;;;;;5065060;28;19951;-73
2023/02/13 12:15:25;;;;;;;;;;;3.10;99.90;;;;;;5049944;28;19925;-73
2023/02/13 12:18:07;;;;;;;;;;;3.10;99.90;;;;;;5062822;28;20354;-73
2023/02/13 12:20:51;;;;;;;;;;;3.10;99.90;;;;;;5056651;28;19943;-73
2023/02/13 12:23:47;;;;;;;;;;;3.10;99.90;;;;;;5068441;28;19928;-71
2023/02/13 12:26:26;;;;;;;;;;;3.10;99.90;;;;;;5052657;28;19946;-72
2023/02/13 12:29:17;;;;;;;;;;;3.10;99.90;;;;;;5057366;28;19968;-72
2023/02/13 12:31:49;;;;;;;;;;;3.20;99.90;;;;;;5068743;28;19982;-72
2023/02/13 12:34:32;;;;;;;;;;;3.20;99.90;;;;;;5069729;28;19925;-72
2023/02/13 12:37:06;;;;;;;;;;;3.20;99.90;;;;;;5061473;28;19932;-71
2023/02/13 12:39:54;;;;;;;;;;;3.20;99.90;;;;;;5065119;28;19955;-72
2023/02/13 12:42:31;;;;;;;;;;;3.30;99.90;;;;;;5086005;28;19928;-72
2023/02/13 12:45:24;;;;;;;;;;;3.30;99.90;;;;;;5068052;28;20002;-73
2023/02/13 12:48:28;;;;;;;;;;;3.20;99.90;;;;;;5052147;28;19932;-73
2023/02/13 12:50:57;;;;;;;;;;;3.30;99.90;;;;;;5056364;28;21279;-73
2023/02/13 12:53:51;;;;;;;;;;;3.10;99.90;;;;;;5071972;28;19924;-73
2023/02/13 12:56:42;;;;;;;;;;;3.10;99.90;;;;;;5068954;28;19928;-72
2023/02/13 12:59:19;;;;;;;;;;;3.10;99.90;;;;;;5082689;28;19932;-73
2023/02/13 13:02:08;;;;;;;;;;;3.20;99.90;;;;;;5063273;28;20362;-73
2023/02/13 13:04:40;;;;;;;;;;;3.20;99.90;;;;;;5079361;28;19928;-72
2023/02/13 13:07:24;;;;;;;;;;;3.30;99.90;;;;;;5067673;28;19924;-73
2023/02/13 13:10:05;;;;;;;;;;;3.30;99.90;;;;;;5080869;28;21263;-73
2023/02/13 13:12:43;;;;;;;;;;;3.20;99.90;;;;;;5065090;28;20335;-73
2023/02/13 13:15:22;;;;;;;;;;;3.30;99.90;;;;;;5069106;28;19924;-73
2023/02/13 13:17:48;;;;;;;;;;;3.30;99.90;;;;;;5065819;28;19924;-73
2023/02/13 13:20:21;;;;;;;;;;;3.30;99.90;;;;;;5050773;28;19962;-73
2023/02/13 13:23:04;;;;;;;;;;;3.30;99.90;;;;;;5051650;28;19932;-73
2023/02/13 13:25:51;;;;;;;;;;;3.30;99.90;;;;;;5058972;28;19928;-73
2023/02/13 13:28:49;;;;;;;;;;;3.40;99.90;;;;;;5075035;28;19988;-73
2023/02/13 13:31:24;;;;;;;;;;;3.40;99.90;;;;;;5059863;28;19924;-73
2023/02/13 13:33:59;;;;;;;;;;;3.50;99.90;;;;;;5065368;28;20310;-73
2023/02/13 13:36:31;;;;;;;;;;;3.40;99.90;;;;;;5063045;28;20019;-73
2023/02/13 13:39:14;;;;;;;;;;;3.50;99.90;;;;;;5061123;28;19932;-71
2023/02/13 13:42:01;;;;;;;;;;;3.50;99.90;;;;;;5067672;28;19936;-73
2023/02/13 13:44:45;;;;;;;;;;;3.40;99.90;;;;;;5059854;28;19990;-72
2023/02/13 13:47:29;;;;;;;;;;;3.50;99.90;;;;;;5076267;28;19925;-72
2023/02/13 13:49:57;;;;;;;;;;;3.50;99.90;;;;;;5048264;28;20449;-73
2023/02/13 13:52:31;;;;;;;;;;;3.40;99.90;;;;;;5061056;28;20384;-72
2023/02/13 13:55:01;;;;;;;;;;;3.40;99.90;;;;;;5069573;28;19937;-73
2023/02/13 13:57:32;;;;;;;;;;;3.40;99.90;;;;;;5062887;28;20023;-73
2023/02/13 14:00:23;;;;;;;;;;;3.30;99.90;;;;;;5067371;28;19986;-72
2023/02/13 14:02:57;;;;;;;;;;;3.30;99.90;;;;;;5063959;28;20272;-73
2023/02/13 14:05:30;;;;;;;;;;;3.30;99.90;;;;;;5081916;28;19997;-73
2023/02/13 14:07:57;;;;;;;;;;;3.40;99.90;;;;;;5068157;28;19930;-73
2023/02/13 14:10:28;;;;;;;;;;;3.30;99.90;;;;;;5066451;28;19928;-73
2023/02/13 14:13:01;;;;;;;;;;;3.30;99.90;;;;;;5061663;28;20366;-72
2023/02/13 14:15:36;;;;;;;;;;;3.20;99.90;;;;;;5047452;28;20356;-73
2023/02/13 14:18:11;;;;;;;;;;;3.20;99.90;;;;;;5045601;28;19925;-73
2023/02/13 14:20:49;;;;;;;;;;;3.20;99.90;;;;;;5042340;28;20457;-72
2023/02/13 14:23:28;;;;;;;;;;;3.10;99.90;;;;;;5045959;28;20310;-72
2023/02/13 14:26:10;;;;;;;;;;;3.10;99.90;;;;;;5058276;28;19925;-71
2023/02/13 14:28:42;;;;;;;;;;;3.20;99.90;;;;;;5041533;28;19971;-71
2023/02/13 14:31:23;;;;;;;;;;;3.10;99.90;;;;;;5044313;28;19932;-72
2023/02/13 14:34:15;;;;;;;;;;;3.10;99.90;;;;;;5031028;28;19929;-72
2023/02/13 14:36:48;;;;;;;;;;;3.10;99.90;;;;;;5019525;28;19932;-72
2023/02/13 14:39:35;;;;;;;;;;;3.10;99.90;;;;;;5042466;28;19925;-72
2023/02/13 14:42:39;;;;;;;;;;;3.10;99.90;;;;;;5045651;28;19971;-72
2023/02/13 14:45:15;;;;;;;;;;;3.10;99.90;;;;;;5027271;28;19925;-72
2023/02/13 14:47:54;;;;;;;;;;;3.10;99.90;;;;;;5031606;28;19925;-72
2023/02/13 14:50:28;;;;;;;;;;;3.10;99.90;;;;;;5046733;28;19925;-71
2023/02/13 14:53:03;;;;;;;;;;;3.00;99.90;;;;;;5044317;28;19929;-72
2023/02/13 14:55:35;;;;;;;;;;;3.10;99.90;;;;;;5031169;28;19962;-71
2023/02/13 14:58:22;;;;;;;;;;;3.10;99.90;;;;;;5030871;28;19940;-72
2023/02/13 15:02:05;;;;;;;;;;;3.00;99.90;;;;;;5042945;28;20399;-73
2023/02/13 15:05:04;;;;;;;;;;;3.00;99.90;;;;;;5031345;28;20370;-72
2023/02/13 15:08:28;;;;;;;;;;;3.00;99.90;;;;;;5045551;28;19925;-72
2023/02/13 15:11:43;;;;;;;;;;;3.00;99.90;;;;;;5038984;28;19936;-72
2023/02/13 15:14:55;;;;;;;;;;;3.10;99.90;;;;;;5037128;28;19925;-72
2023/02/13 15:18:10;;;;;;;;;;;3.10;99.90;;;;;;5041842;28;19936;-72
2023/02/13 15:21:13;;;;;;;;;;;3.00;99.90;;;;;;5061838;28;19931;-73
2023/02/13 15:24:44;;;;;;;;;;;3.10;99.90;;;;;;5048938;28;19941;-73
2023/02/13 15:30:39;;;;;;;;;;;3.00;99.90;;;;;;5050144;28;20054;-72
2023/02/13 15:33:35;;;;;;;;;;;3.00;99.90;;;;;;5047688;28;19931;-73
2023/02/13 15:36:21;;;;;;;;;;;2.90;99.90;;;;;;5064450;28;19960;-72
2023/02/13 15:39:09;;;;;;;;;;;2.90;99.90;;;;;;5063576;28;20388;-73
2023/02/13 15:41:41;;;;;;;;;;;2.80;99.90;;;;;;5049440;28;20015;-72
2023/02/13 15:44:19;;;;;;;;;;;2.80;99.90;;;;;;5049856;28;19929;-72
2023/02/13 15:46:52;;;;;;;;;;;2.70;99.90;;;;;;5045185;28;20418;-72
2023/02/13 15:49:31;;;;;;;;;;;2.70;99.90;;;;;;5053887;28;20299;-72
2023/02/13 15:52:14;;;;;;;;;;;2.70;99.90;;;;;;5043556;28;19925;-71
2023/02/13 15:55:24;;;;;;;;;;;2.60;99.90;;;;;;5051981;28;19971;-72
2023/02/13 15:57:59;;;;;;;;;;;2.60;99.90;;;;;;5046682;28;20024;-73
2023/02/13 16:00:44;;;;;;;;;;;2.60;99.90;;;;;;5047399;28;20298;-72
2023/02/13 16:03:17;;;;;;;;;;;2.60;99.90;;;;;;5034159;28;19929;-72
2023/02/13 16:05:48;;;;;;;;;;;2.60;99.90;;;;;;5030237;28;20448;-72
2023/02/13 16:08:29;;;;;;;;;;;2.60;99.90;;;;;;5032733;28;19925;-72
2023/02/13 16:11:22;;;;;;;;;;;2.50;99.90;;;;;;5049735;28;19979;-71
2023/02/13 16:14:03;;;;;;;;;;;2.50;99.90;;;;;;5061510;28;19964;-72
2023/02/13 16:16:40;;;;;;;;;;;2.50;99.90;;;;;;5052372;28;20371;-72
2023/02/13 16:19:30;;;;;;;;;;;2.40;99.90;;;;;;5046723;28;19964;-72
2023/02/13 16:22:15;;;;;;;;;;;2.40;99.90;;;;;;5045748;28;20432;-73
2023/02/13 16:24:48;;;;;;;;;;;2.40;99.90;;;;;;5045589;28;20024;-73
2023/02/13 16:27:15;;;;;;;;;;;2.40;99.90;;;;;;5044124;28;20011;-73
2023/02/13 16:29:58;;;;;;;;;;;2.40;99.90;;;;;;5044668;28;19948;-72
2023/02/13 16:32:35;;;;;;;;;;;2.40;99.90;;;;;;5049562;28;19925;-72
2023/02/13 16:35:14;;;;;;;;;;;2.40;99.90;;;;;;5049724;28;20487;-72
2023/02/13 16:37:51;;;;;;;;;;;2.40;99.90;;;;;;5049432;28;19983;-72
2023/02/13 16:40:32;;;;;;;;;;;2.40;99.90;;;;;;5046380;28;19932;-72
2023/02/13 16:43:18;;;;;;;;;;;2.30;99.90;;;;;;5042053;28;19925;-72